Main page
METAR-TAF:

METAR-TAF

Airports :

Dammam, Saudi Arabia

King Fahd International Airport

latitude: 26-28N, longitude: 049-47E, elevation: 22 m

Current weather observation

The report was made 23 minutes ago, at 07:00 UTC
Wind 10 kt from the Northwest
Temperature 42°C
Humidity 25%
Pressure 1000 hPa
Visibility: 8000 m

METAR: OEDF 190700Z 31010KT 8000 NSC 42/18 Q1000 NOSIG

Time: 10:23 (07:23 UTC)

Forecast

The report was made 4 hours and 53 minutes ago, at 02:30 UTC
Forecast valid from 19 at 06 UTC to 20 at 12 UTC
Wind 10 kt from the Northwest
Visibility: 8000 m
Becoming
from 19 at 09 UTC to 19 at 11 UTC
Wind 15 kt from the Northeast

TAF: OEDF 190230Z 1906/2012 31010KT 8000 NSC BECMG 1909/1911 05015KT

Weather observations and forecasts of more than 4000 airports (METAR and TAF reports).

The available stations are represented by yellow and red dots on the map.

Hover mouse over dot to see the name of the station.

Then click to see weather observations and forecasts.

To change the map : click on the green buttons with a black cross to zoom in, on the green button with a dash to zoom out, or on the green arrows for adjacent maps.


METAR-TAF: